createdAt,value
2022-12-25T00:00:54.481Z,93.50
2022-12-25T00:06:01.443Z,91.13
2022-12-25T00:11:08.608Z,85.40
2022-12-25T00:16:17.586Z,87.18
2022-12-25T00:21:24.579Z,92.70
2022-12-25T00:26:31.105Z,83.30
2022-12-25T00:31:37.455Z,100.78
2022-12-25T00:36:42.874Z,95.45
2022-12-25T00:42:07.324Z,93.78
2022-12-25T00:47:13.259Z,98.70
2022-12-25T00:52:19.147Z,94.22
2022-12-25T00:57:24.667Z,93.60
2022-12-25T01:02:30.738Z,96.28
2022-12-25T01:07:37.287Z,102.43
2022-12-25T01:17:48.513Z,96.05
2022-12-25T01:22:54.290Z,99.95
2022-12-25T01:28:00.117Z,104.63
2022-12-25T01:33:06.457Z,102.27
2022-12-25T01:38:12.524Z,98.32
2022-12-25T01:43:31.851Z,91.93
2022-12-25T01:48:39.862Z,94.88
2022-12-25T01:53:45.591Z,109.00
2022-12-25T01:58:51.047Z,105.07
2022-12-25T02:04:01.270Z,96.82
2022-12-25T02:09:07.174Z,87.80
2022-12-25T02:14:12.789Z,69.55
2022-12-25T02:19:34.329Z,53.43
2022-12-25T02:24:58.246Z,42.92
2022-12-25T02:30:11.681Z,49.53
2022-12-25T02:35:26.593Z,48.63
2022-12-25T02:40:35.253Z,52.10
2022-12-25T02:46:02.906Z,57.75
2022-12-25T02:51:28.614Z,62.47
2022-12-25T02:56:53.225Z,54.28
2022-12-25T03:02:17.812Z,51.35
2022-12-25T03:07:24.773Z,48.40
2022-12-25T03:12:36.055Z,47.28
2022-12-25T03:17:42.693Z,38.85
2022-12-25T03:23:07.403Z,42.70
2022-12-25T03:28:13.570Z,34.33
2022-12-25T03:33:45.081Z,34.80
2022-12-25T03:39:05.926Z,23.15
2022-12-25T03:44:23.613Z,34.85
2022-12-25T03:49:51.321Z,30.17
2022-12-25T03:55:16.151Z,31.08
2022-12-25T04:00:40.260Z,29.70
2022-12-25T04:06:04.272Z,27.42
2022-12-25T04:11:28.573Z,26.55
2022-12-25T04:16:52.335Z,29.65
2022-12-25T04:22:16.733Z,30.27
2022-12-25T04:27:45.023Z,27.23
2022-12-25T04:33:09.640Z,23.90
2022-12-25T04:38:16.415Z,21.92
2022-12-25T04:43:25.775Z,23.02
2022-12-25T04:48:33.275Z,23.75
2022-12-25T04:53:39.448Z,24.63
2022-12-25T05:03:51.528Z,24.65
2022-12-25T05:08:57.516Z,19.38
2022-12-25T05:14:03.225Z,22.83
2022-12-25T05:24:14.740Z,20.00
2022-12-25T05:29:20.538Z,24.38
2022-12-25T05:34:27.293Z,26.07
2022-12-25T05:39:32.925Z,15.85
2022-12-25T05:44:38.770Z,21.95
2022-12-25T05:49:45.046Z,17.92
2022-12-25T05:54:50.562Z,26.15
2022-12-25T06:00:02.516Z,18.67
2022-12-25T06:05:17.463Z,18.35
2022-12-25T06:10:26.206Z,16.70
2022-12-25T06:15:32.821Z,15.00
2022-12-25T06:20:45.598Z,16.52
2022-12-25T06:25:51.408Z,18.30
2022-12-25T06:32:49.443Z,18.20
2022-12-25T06:37:56.145Z,13.90
2022-12-25T06:43:01.673Z,20.00
2022-12-25T06:48:07.531Z,17.37
2022-12-25T06:53:12.855Z,18.50
2022-12-25T06:58:18.428Z,25.60
2022-12-25T07:03:24.864Z,22.37
2022-12-25T07:08:30.487Z,22.88
2022-12-25T07:13:36.236Z,22.37
2022-12-25T07:18:43.251Z,21.95
2022-12-25T07:23:49.848Z,20.85
2022-12-25T07:28:55.423Z,21.35
2022-12-25T07:34:01.363Z,21.90
2022-12-25T07:39:06.635Z,24.95
2022-12-25T07:44:12.118Z,20.60
2022-12-25T07:49:18.298Z,22.30
2022-12-25T07:59:29.166Z,21.55
2022-12-25T08:04:34.984Z,16.02
2022-12-25T08:09:41.166Z,23.25
2022-12-25T08:14:46.964Z,17.80
2022-12-25T08:19:52.969Z,9.20
2022-12-25T08:24:58.640Z,12.43
2022-12-25T08:30:05.377Z,9.63
2022-12-25T08:35:11.099Z,13.63
2022-12-25T08:40:17.219Z,18.48
2022-12-25T08:45:22.685Z,15.80
2022-12-25T08:50:28.510Z,23.87
2022-12-25T08:55:34.011Z,22.10
2022-12-25T09:00:39.827Z,21.57
2022-12-25T09:05:45.659Z,22.50
2022-12-25T09:10:51.945Z,17.33
2022-12-25T09:21:04.650Z,16.38
2022-12-25T09:26:11.203Z,18.65
2022-12-25T09:31:16.936Z,20.98
2022-12-25T09:36:24.781Z,17.35
2022-12-25T09:41:34.711Z,16.60
2022-12-25T09:47:01.370Z,19.58
2022-12-25T09:57:15.920Z,20.52
2022-12-25T10:02:34.056Z,21.25
2022-12-25T10:07:40.321Z,22.02
2022-12-25T10:13:01.520Z,22.80
2022-12-25T10:18:16.843Z,31.65
2022-12-25T10:23:25.704Z,23.02
2022-12-25T10:28:35.430Z,19.60
2022-12-25T10:33:41.191Z,23.10
2022-12-25T10:38:48.154Z,21.52
2022-12-25T10:43:57.652Z,23.13
2022-12-25T10:49:03.694Z,21.02
2022-12-25T10:54:27.165Z,20.73
2022-12-25T10:59:37.334Z,22.42
2022-12-25T11:04:43.403Z,24.27
2022-12-25T11:15:01.958Z,24.58
2022-12-25T11:20:20.123Z,33.13
2022-12-25T11:25:27.348Z,26.42
2022-12-25T11:30:33.945Z,31.05
2022-12-25T11:35:47.749Z,34.97
2022-12-25T11:41:00.449Z,50.55
2022-12-25T11:46:24.403Z,29.63
2022-12-25T11:51:34.231Z,29.92
2022-12-25T11:56:40.584Z,33.67
2022-12-25T12:01:46.484Z,35.28
2022-12-25T12:07:10.484Z,32.42
2022-12-25T12:12:15.661Z,31.02
2022-12-25T12:17:21.830Z,30.00
2022-12-25T12:22:28.799Z,28.88
2022-12-25T12:27:37.661Z,27.45
2022-12-25T12:32:49.395Z,24.70
2022-12-25T12:37:57.745Z,29.95
2022-12-25T12:43:04.186Z,27.17
2022-12-25T12:48:28.130Z,31.42
2022-12-25T12:53:35.146Z,29.45
2022-12-25T12:58:46.611Z,28.75
2022-12-25T13:04:15.455Z,30.23
2022-12-25T13:09:30.502Z,24.23
2022-12-25T13:14:36.335Z,25.15
2022-12-25T13:19:45.497Z,20.85
2022-12-25T13:24:57.989Z,30.90
2022-12-25T13:30:14.270Z,26.95
2022-12-25T13:35:20.748Z,30.83
2022-12-25T13:40:28.309Z,26.73
2022-12-25T13:45:35.965Z,25.05
2022-12-25T13:50:46.513Z,29.92
2022-12-25T13:55:54.484Z,26.92
2022-12-25T14:01:01.552Z,28.20
2022-12-25T14:06:09.204Z,27.70
2022-12-25T14:11:17.352Z,31.98
2022-12-25T14:16:23.576Z,29.25
2022-12-25T14:21:33.154Z,46.30
2022-12-25T14:26:38.935Z,47.47
2022-12-25T14:31:44.899Z,60.00
2022-12-25T14:36:50.978Z,31.33
2022-12-25T14:41:57.326Z,45.15
2022-12-25T14:47:29.304Z,40.17
2022-12-25T14:52:45.039Z,34.38
2022-12-25T14:58:10.827Z,28.95
2022-12-25T15:03:50.599Z,29.85
2022-12-25T15:09:05.959Z,27.00
2022-12-25T15:14:13.055Z,30.23
2022-12-25T15:19:25.029Z,27.77
2022-12-25T15:24:32.040Z,27.38
2022-12-25T15:30:08.562Z,26.10
2022-12-25T15:35:03.344Z,28.67
2022-12-25T15:40:10.761Z,36.00
2022-12-25T15:45:26.749Z,35.25
2022-12-25T15:50:34.315Z,36.47
2022-12-25T15:55:40.289Z,53.35
2022-12-25T16:00:46.292Z,44.03
2022-12-25T16:05:53.111Z,39.83
2022-12-25T16:10:59.668Z,49.07
2022-12-25T16:16:08.576Z,44.17
2022-12-25T16:26:43.974Z,45.42
2022-12-25T16:31:50.307Z,44.38
2022-12-25T16:36:57.878Z,46.30
2022-12-25T16:42:03.389Z,48.63
2022-12-25T16:47:09.250Z,44.50
2022-12-25T16:52:14.602Z,45.63
2022-12-25T16:57:20.227Z,43.23
2022-12-25T17:02:26.172Z,47.42
2022-12-25T17:07:32.549Z,47.37
2022-12-25T17:17:43.696Z,40.65
2022-12-25T17:22:51.699Z,49.30
2022-12-25T17:27:57.103Z,51.70
2022-12-25T17:33:02.385Z,48.15
2022-12-25T17:38:08.565Z,47.93
2022-12-25T17:43:18.990Z,49.17
2022-12-25T17:48:26.647Z,49.17
2022-12-25T17:53:32.146Z,46.93
2022-12-25T17:58:38.406Z,48.23
2022-12-25T18:03:44.738Z,48.90
2022-12-25T18:08:50.692Z,48.58
2022-12-25T18:13:56.519Z,47.07
2022-12-25T18:19:02.377Z,49.95
2022-12-25T18:24:08.340Z,49.73
2022-12-25T18:29:13.653Z,51.10
2022-12-25T18:34:20.723Z,54.38
2022-12-25T18:39:26.275Z,55.33
2022-12-25T18:44:33.105Z,48.10
2022-12-25T18:49:38.581Z,44.00
2022-12-25T18:54:44.207Z,50.20
2022-12-25T18:59:49.575Z,43.90
2022-12-25T19:04:55.354Z,41.47
2022-12-25T19:10:01.610Z,43.67
2022-12-25T19:15:10.752Z,44.92
2022-12-25T19:20:16.669Z,42.57
2022-12-25T19:25:22.497Z,41.90
2022-12-25T19:30:28.286Z,43.75
2022-12-25T19:35:34.072Z,41.77
2022-12-25T19:40:41.460Z,43.45
2022-12-25T19:45:46.959Z,43.08
2022-12-25T19:50:52.952Z,45.67
2022-12-25T19:55:58.675Z,42.17
2022-12-25T20:01:08.595Z,43.70
2022-12-25T20:06:22.126Z,48.28
2022-12-25T20:11:29.583Z,48.97
2022-12-25T20:16:35.769Z,46.17
2022-12-25T20:21:41.706Z,47.17
2022-12-25T20:26:48.044Z,48.25
2022-12-25T20:31:55.055Z,47.35
2022-12-25T20:37:00.593Z,50.30
2022-12-25T20:42:05.942Z,50.70
2022-12-25T20:47:11.976Z,54.40
2022-12-25T20:52:17.727Z,51.57
2022-12-25T20:57:23.128Z,48.20
2022-12-25T21:02:34.689Z,48.97
2022-12-25T21:07:41.807Z,50.22
2022-12-25T21:12:47.311Z,46.10
2022-12-25T21:17:52.991Z,47.67
2022-12-25T21:22:58.345Z,55.67
2022-12-25T21:28:04.077Z,46.65
2022-12-25T21:33:28.229Z,49.27
2022-12-25T21:38:33.872Z,49.78
2022-12-25T21:43:40.966Z,50.07
2022-12-25T21:48:46.763Z,46.63
2022-12-25T21:53:52.213Z,43.53
2022-12-25T21:58:58.209Z,40.73
2022-12-25T22:04:08.405Z,45.40
2022-12-25T22:09:14.119Z,42.28
2022-12-25T22:14:52.833Z,41.43
2022-12-25T22:19:59.678Z,43.88
2022-12-25T22:25:05.924Z,43.45
2022-12-25T22:30:19.450Z,41.90
2022-12-25T22:35:25.050Z,43.83
2022-12-25T22:40:30.694Z,46.30
2022-12-25T22:45:36.245Z,48.10
2022-12-25T22:50:42.084Z,51.50
2022-12-25T22:55:51.602Z,53.07
2022-12-25T23:00:57.041Z,53.15
2022-12-25T23:06:03.213Z,56.60
2022-12-25T23:11:11.871Z,55.28
2022-12-25T23:16:17.971Z,58.08
2022-12-25T23:21:42.546Z,58.20
2022-12-25T23:26:48.554Z,54.40
2022-12-25T23:31:55.430Z,55.53
2022-12-25T23:37:02.529Z,58.13
2022-12-25T23:42:08.972Z,57.33
2022-12-25T23:47:14.940Z,57.17
2022-12-25T23:52:20.795Z,54.92
2022-12-25T23:57:26.576Z,53.90
